Time;durP1;ratioP1;P1;durP2;ratioP2;P2;SDS_P1;SDS_P2;PMS_P1;PMS_P2;Temp;Humidity;BMP_temperature;BMP_pressure;BME280_temperature;BME280_humidity;BME280_pressure;Samples;Min_cycle;Max_cycle;Signal;HPM_P1;HPM_P2
2021/07/02 00:02:18;;;;;;;6.60;4.63;;;;;;;;;;5096515;28;20448;-88
2021/07/02 00:04:45;;;;;;;6.50;5.80;;;13.60;99.90;;;;;;5094315;28;20827;-90
2021/07/02 00:07:12;;;;;;;6.13;5.50;;;13.30;99.90;;;;;;5098199;28;20455;-89
2021/07/02 00:09:40;;;;;;;7.00;5.87;;;13.30;99.90;;;;;;5093862;28;20448;-88
2021/07/02 00:12:08;;;;;;;9.97;5.93;;;13.40;99.90;;;;;;5097912;28;20849;-90
2021/07/02 00:14:34;;;;;;;6.67;5.27;;;13.50;99.90;;;;;;5092701;28;20453;-88
2021/07/02 00:17:02;;;;;;;6.97;4.90;;;;;;;;;;5097762;28;20494;-89
2021/07/02 00:19:31;;;;;;;5.80;5.13;;;12.90;99.90;;;;;;5092958;28;20950;-89
2021/07/02 00:21:58;;;;;;;6.50;5.57;;;;;;;;;;5097681;28;20858;-88
2021/07/02 00:24:25;;;;;;;7.17;5.40;;;;;;;;;;5090101;28;20498;-89
2021/07/02 00:26:53;;;;;;;10.87;5.33;;;13.20;99.90;;;;;;5094474;28;20940;-89
2021/07/02 00:29:20;;;;;;;8.43;5.43;;;12.90;99.90;;;;;;5091125;28;20433;-89
2021/07/02 00:31:48;;;;;;;8.57;4.90;;;;;;;;;;5093307;28;20487;-90
2021/07/02 00:34:15;;;;;;;9.30;6.33;;;13.10;99.90;;;;;;5095664;28;20448;-92
2021/07/02 00:36:42;;;;;;;6.60;5.53;;;12.80;99.90;;;;;;5097319;28;20448;-89
2021/07/02 00:39:09;;;;;;;9.60;5.40;;;;;;;;;;5092862;28;20448;-89
2021/07/02 00:41:37;;;;;;;7.47;4.80;;;13.00;99.90;;;;;;5097047;28;20495;-89
2021/07/02 00:44:06;;;;;;;6.17;4.80;;;12.60;99.90;;;;;;5096351;28;20452;-88
2021/07/02 00:46:33;;;;;;;6.53;5.47;;;13.00;99.90;;;;;;5091179;28;20477;-88
2021/07/02 00:48:59;;;;;;;5.07;4.40;;;13.40;99.90;;;;;;5090317;28;20460;-87
2021/07/02 00:51:29;;;;;;;6.30;5.00;;;13.00;99.90;;;;;;5097441;28;20476;-89
2021/07/02 00:53:58;;;;;;;9.77;5.30;;;;;;;;;;5097229;28;20440;-89
2021/07/02 00:56:25;;;;;;;7.57;5.77;;;12.90;99.90;;;;;;5097198;28;20452;-88
2021/07/02 00:58:52;;;;;;;5.43;4.93;;;13.30;99.90;;;;;;5088484;28;20437;-89
2021/07/02 01:01:20;;;;;;;7.80;5.60;;;13.20;99.90;;;;;;5096913;28;20462;-89
2021/07/02 01:03:48;;;;;;;7.07;5.17;;;13.10;99.90;;;;;;5096675;28;20440;-89
2021/07/02 01:06:17;;;;;;;6.57;4.50;;;13.10;99.90;;;;;;5092579;28;20452;-90
2021/07/02 01:08:44;;;;;;;7.13;5.63;;;13.10;99.90;;;;;;5096692;28;20441;-89
2021/07/02 01:11:13;;;;;;;7.43;5.10;;;13.20;99.90;;;;;;5091772;28;20437;-91
2021/07/02 01:13:41;;;;;;;7.47;5.43;;;13.10;99.90;;;;;;5095121;28;20449;-88
2021/07/02 01:16:08;;;;;;;6.87;4.67;;;;;;;;;;5093511;28;20448;-88
2021/07/02 01:18:39;;;;;;;6.77;5.07;;;13.10;99.90;;;;;;5096280;28;20481;-90
2021/07/02 01:24:29;;;;;;;5.80;4.40;;;13.30;99.90;;;;;;5096456;28;20412;-90
2021/07/02 01:26:55;;;;;;;6.43;5.20;;;12.60;99.90;;;;;;5092095;28;20456;-89
2021/07/02 01:29:23;;;;;;;8.73;5.37;;;;;;;;;;5091180;28;20814;-89
2021/07/02 01:31:51;;;;;;;7.40;5.03;;;;;;;;;;5096448;28;20511;-88
2021/07/02 01:34:18;;;;;;;9.43;5.70;;;13.10;99.90;;;;;;5093273;28;20842;-89
2021/07/02 01:36:45;;;;;;;8.03;5.37;;;;;;;;;;5096704;28;20445;-89
2021/07/02 01:39:12;;;;;;;5.77;4.77;;;13.10;99.90;;;;;;5096477;28;20453;-87
2021/07/02 01:41:40;;;;;;;11.40;4.20;;;13.00;99.90;;;;;;5090885;28;20449;-91
2021/07/02 01:44:07;;;;;;;6.37;5.00;;;12.90;99.90;;;;;;5095121;28;20939;-88
2021/07/02 01:46:34;;;;;;;6.90;5.43;;;12.90;99.90;;;;;;5095871;28;20451;-88
2021/07/02 01:49:01;;;;;;;6.80;5.00;;;;;;;;;;5091479;28;20452;-89
2021/07/02 01:51:28;;;;;;;4.87;4.40;;;;;;;;;;5093333;28;21006;-86
2021/07/02 01:53:55;;;;;;;6.57;4.93;;;12.70;99.90;;;;;;5096003;28;20456;-89
2021/07/02 01:56:22;;;;;;;6.40;4.30;;;12.40;99.90;;;;;;5096023;28;20448;-87
2021/07/02 01:58:51;;;;;;;9.90;5.37;;;12.90;99.90;;;;;;5089379;28;20516;-89
2021/07/02 02:01:18;;;;;;;8.07;4.90;;;12.80;99.90;;;;;;5087762;28;20440;-90
2021/07/02 02:03:47;;;;;;;5.83;5.10;;;;;;;;;;5090157;28;20623;-88
2021/07/02 02:06:14;;;;;;;6.67;5.27;;;;;;;;;;5090732;28;20452;-89
2021/07/02 02:08:41;;;;;;;6.90;5.20;;;;;;;;;;5095799;28;20441;-89
2021/07/02 02:11:09;;;;;;;7.60;5.47;;;;;;;;;;5095845;28;20448;-89
2021/07/02 02:13:36;;;;;;;9.13;5.57;;;;;;;;;;5091958;28;20835;-87
2021/07/02 02:16:05;;;;;;;6.33;5.63;;;12.50;99.90;;;;;;5117620;28;20429;-89
2021/07/02 02:18:32;;;;;;;8.47;5.37;;;;;;;;;;5106112;28;20597;-90
2021/07/02 02:20:59;;;;;;;8.27;5.63;;;12.70;99.90;;;;;;5096066;28;20444;-89
2021/07/02 02:23:26;;;;;;;7.07;5.63;;;;;;;;;;5092085;28;20490;-91
2021/07/02 02:25:54;;;;;;;10.00;5.90;;;;;;;;;;5092051;28;20452;-90
2021/07/02 02:28:21;;;;;;;7.30;5.60;;;;;;;;;;5090924;28;20441;-89
2021/07/02 02:30:48;;;;;;;6.60;5.07;;;;;;;;;;5095654;28;20448;-90
2021/07/02 02:33:16;;;;;;;6.93;5.83;;;12.50;99.90;;;;;;5095109;28;20488;-89
2021/07/02 02:35:43;;;;;;;6.80;5.40;;;;;;;;;;5089310;28;20459;-89
2021/07/02 02:38:11;;;;;;;7.67;6.10;;;;;;;;;;5094830;28;20453;-90
2021/07/02 02:40:39;;;;;;;9.33;5.70;;;;;;;;;;5094863;28;20826;-91
2021/07/02 02:43:06;;;;;;;6.73;5.47;;;;;;;;;;5093847;28;20456;-90
2021/07/02 02:45:33;;;;;;;8.30;6.13;;;12.10;99.90;;;;;;5089425;28;20928;-88
2021/07/02 02:48:00;;;;;;;6.47;5.40;;;12.40;99.90;;;;;;5089540;28;20947;-89
2021/07/02 02:50:28;;;;;;;8.40;6.10;;;12.20;99.90;;;;;;5094786;28;20455;-89
2021/07/02 02:52:55;;;;;;;6.77;5.93;;;;;;;;;;5089419;28;20834;-88
2021/07/02 02:55:22;;;;;;;6.87;5.90;;;12.40;99.90;;;;;;5090931;28;20917;-90
2021/07/02 02:57:50;;;;;;;8.77;6.17;;;;;;;;;;5090361;28;20971;-90
2021/07/02 03:00:17;;;;;;;8.63;6.03;;;12.70;99.90;;;;;;5095046;28;20453;-91
2021/07/02 03:02:44;;;;;;;6.93;5.30;;;;;;;;;;5095011;28;20475;-91
2021/07/02 03:05:11;;;;;;;6.43;5.50;;;12.30;99.90;;;;;;5094458;28;20449;-89
2021/07/02 03:07:41;;;;;;;7.10;4.87;;;12.50;99.90;;;;;;5094644;28;20464;-89
2021/07/02 03:10:09;;;;;;;7.17;5.17;;;12.20;99.90;;;;;;5094683;28;20506;-89
2021/07/02 03:12:36;;;;;;;8.03;5.20;;;;;;;;;;5093129;28;20488;-88
2021/07/02 03:15:04;;;;;;;8.73;5.30;;;12.30;99.90;;;;;;5092394;28;20844;-89
2021/07/02 03:17:31;;;;;;;10.33;5.73;;;;;;;;;;5094747;28;20477;-88
2021/07/02 03:19:58;;;;;;;7.87;5.37;;;;;;;;;;5093705;28;20455;-89
2021/07/02 03:22:26;;;;;;;7.40;5.87;;;;;;;;;;5094246;28;20800;-89
2021/07/02 03:24:54;;;;;;;7.43;6.37;;;12.50;99.90;;;;;;5094040;28;20451;-89
2021/07/02 03:27:21;;;;;;;9.10;6.80;;;;;;;;;;5093930;28;20448;-89
2021/07/02 03:29:48;;;;;;;7.97;5.80;;;12.30;99.90;;;;;;5093039;28;20446;-88
2021/07/02 03:32:15;;;;;;;5.90;5.30;;;;;;;;;;5089905;28;20500;-90
2021/07/02 03:34:44;;;;;;;9.87;5.53;;;;;;;;;;5094029;28;20445;-88
2021/07/02 03:37:12;;;;;;;6.60;5.30;;;12.40;99.90;;;;;;5094266;28;20475;-88
2021/07/02 03:39:39;;;;;;;8.67;5.93;;;12.30;99.90;;;;;;5093968;28;20530;-90
2021/07/02 03:42:07;;;;;;;6.07;5.00;;;12.50;99.90;;;;;;5093958;28;20456;-88
2021/07/02 03:44:35;;;;;;;8.60;5.37;;;;;;;;;;5092699;28;20448;-87
2021/07/02 03:47:03;;;;;;;6.33;5.47;;;;;;;;;;5089450;28;20519;-87
2021/07/02 03:49:30;;;;;;;10.40;5.77;;;12.30;99.90;;;;;;5093945;28;20436;-89
2021/07/02 03:51:57;;;;;;;6.47;5.83;;;12.20;99.90;;;;;;5088317;28;20437;-88
2021/07/02 03:54:24;;;;;;;6.33;5.40;;;;;;;;;;5091748;28;20452;-88
2021/07/02 03:59:37;;;;;;;8.10;5.80;;;12.40;99.90;;;;;;5092377;28;20425;-87
2021/07/02 04:02:04;;;;;;;9.33;6.20;;;12.50;99.90;;;;;;5086152;28;20920;-89
2021/07/02 04:04:33;;;;;;;7.10;5.70;;;12.40;99.90;;;;;;5088327;28;20449;-88
2021/07/02 04:07:01;;;;;;;8.90;6.50;;;;;;;;;;5094010;28;20464;-89
2021/07/02 04:09:28;;;;;;;7.47;6.13;;;;;;;;;;5085356;28;20966;-89
2021/07/02 04:11:55;;;;;;;5.70;5.07;;;;;;;;;;5092953;28;20446;-88
2021/07/02 04:14:22;;;;;;;7.93;6.60;;;11.90;99.90;;;;;;5093450;28;20952;-88
2021/07/02 04:16:51;;;;;;;8.40;6.27;;;13.00;99.90;;;;;;5085662;28;20444;-89
2021/07/02 04:19:18;;;;;;;6.30;5.30;;;;;;;;;;5093540;28;20456;-88
2021/07/02 04:21:46;;;;;;;7.10;6.20;;;13.10;99.90;;;;;;5090672;28;20441;-87
2021/07/02 04:24:13;;;;;;;7.80;6.00;;;13.40;99.90;;;;;;5093424;28;20805;-88
2021/07/02 04:26:40;;;;;;;7.73;5.67;;;;;;;;;;5086890;28;20445;-89
2021/07/02 04:29:07;;;;;;;7.97;5.57;;;;;;;;;;5092661;28;20444;-90
2021/07/02 04:31:34;;;;;;;9.60;6.43;;;13.30;99.90;;;;;;5092618;28;20506;-90
2021/07/02 04:34:03;;;;;;;6.00;5.40;;;13.30;99.90;;;;;;5106534;28;20990;-87
2021/07/02 04:36:35;;;;;;;8.10;6.13;;;13.30;99.90;;;;;;5101856;28;20780;-90
2021/07/02 04:39:05;;;;;;;7.27;5.90;;;;;;;;;;5108393;28;20460;-88
2021/07/02 04:41:32;;;;;;;7.93;6.10;;;;;;;;;;5104143;28;20444;-87
2021/07/02 04:44:00;;;;;;;7.80;5.83;;;;;;;;;;5108512;28;20443;-87
2021/07/02 04:46:27;;;;;;;7.23;5.80;;;;;;;;;;5106252;28;20450;-86
2021/07/02 04:48:57;;;;;;;5.43;4.93;;;13.50;99.90;;;;;;5106546;28;20436;-86
2021/07/02 04:51:25;;;;;;;9.43;5.90;;;13.70;99.90;;;;;;5104083;28;20444;-88
2021/07/02 04:53:53;;;;;;;7.23;6.13;;;13.50;99.90;;;;;;5100452;28;20511;-90
2021/07/02 04:56:20;;;;;;;8.20;5.93;;;;;;;;;;5103723;28;20448;-87
2021/07/02 04:58:54;;;;;;;6.90;5.83;;;;;;;;;;5098619;28;20436;-87
2021/07/02 05:01:21;;;;;;;6.77;5.80;;;;;;;;;;5133752;28;20439;-86
2021/07/02 05:03:48;;;;;;;6.73;5.80;;;13.70;99.90;;;;;;5133061;28;20926;-91
2021/07/02 05:06:15;;;;;;;7.30;6.03;;;13.40;99.90;;;;;;5116538;28;20453;-88
2021/07/02 05:08:44;;;;;;;8.97;6.63;;;13.40;99.90;;;;;;5120266;28;20432;-88
2021/07/02 05:11:12;;;;;;;8.10;6.10;;;;;;;;;;5113657;28;20444;-87
2021/07/02 05:13:41;;;;;;;8.00;5.80;;;13.20;99.90;;;;;;5118047;28;20519;-88
2021/07/02 05:16:09;;;;;;;6.50;5.73;;;13.90;99.90;;;;;;5119117;28;20443;-89
2021/07/02 05:18:42;;;;;;;7.07;6.27;;;13.70;99.90;;;;;;5112935;28;20499;-91
2021/07/02 05:21:09;;;;;;;6.43;5.83;;;;;;;;;;5119642;28;20935;-90
2021/07/02 05:23:36;;;;;;;7.80;5.70;;;;;;;;;;5120169;28;20455;-92
2021/07/02 05:26:05;;;;;;;7.53;5.77;;;13.90;99.90;;;;;;5119459;28;20447;-88
2021/07/02 05:28:35;;;;;;;7.00;5.33;;;;;;;;;;5112842;28;20440;-89
2021/07/02 05:31:02;;;;;;;9.23;6.07;;;;;;;;;;5113247;28;20501;-88
2021/07/02 05:33:30;;;;;;;7.50;5.57;;;;;;;;;;5116795;28;20479;-90
2021/07/02 05:35:58;;;;;;;12.10;6.50;;;;;;;;;;5113841;28;20447;-90
2021/07/02 05:38:25;;;;;;;8.63;5.80;;;;;;;;;;5118285;28;20975;-90
2021/07/02 05:40:55;;;;;;;7.60;5.83;;;;;;;;;;5116493;28;20452;-88
2021/07/02 05:43:23;;;;;;;8.20;5.90;;;14.90;99.90;;;;;;5115299;28;20502;-91
2021/07/02 05:45:51;;;;;;;6.60;4.60;;;;;;;;;;5108751;28;20444;-88
2021/07/02 05:48:19;;;;;;;6.97;5.73;;;15.30;99.90;;;;;;5117557;28;20778;-88
2021/07/02 05:50:46;;;;;;;6.30;5.70;;;;;;;;;;5108956;28;20436;-89
2021/07/02 05:53:13;;;;;;;6.23;5.63;;;15.70;99.90;;;;;;5100819;28;20492;-91
2021/07/02 05:55:40;;;;;;;6.40;5.43;;;;;;;;;;5099279;28;20447;-88
2021/07/02 05:58:08;;;;;;;5.90;5.30;;;;;;;;;;5091992;28;20445;-89
2021/07/02 06:00:36;;;;;;;7.30;6.43;;;16.10;99.90;;;;;;5102758;28;20447;-90
2021/07/02 06:03:04;;;;;;;7.87;5.10;;;16.70;99.90;;;;;;5113424;28;20432;-90
2021/07/02 06:05:34;;;;;;;14.07;5.30;;;16.60;99.90;;;;;;5114926;28;20448;-89
2021/07/02 06:08:03;;;;;;;4.87;4.37;;;;;;;;;;5030934;28;20491;-93
2021/07/02 06:10:31;;;;;;;5.73;5.13;;;;;;;;;;5037215;28;20451;-90
2021/07/02 06:12:58;;;;;;;5.20;4.73;;;17.80;99.90;;;;;;5035774;28;20537;-90
2021/07/02 06:15:26;;;;;;;5.50;4.73;;;;;;;;;;5033562;28;20458;-93
2021/07/02 06:17:54;;;;;;;5.43;4.93;;;17.40;99.90;;;;;;5032607;28;20483;-87
2021/07/02 06:20:24;;;;;;;7.03;6.10;;;17.60;99.90;;;;;;5036269;28;20477;-89
2021/07/02 06:22:52;;;;;;;6.87;5.30;;;;;;;;;;5032299;28;20443;-88
2021/07/02 06:25:19;;;;;;;6.77;5.40;;;;;;;;;;5033255;28;20452;-91
2021/07/02 06:27:46;;;;;;;5.27;4.77;;;;;;;;;;5030857;28;20460;-90
2021/07/02 06:30:14;;;;;;;5.13;4.50;;;18.30;99.90;;;;;;5033828;28;20462;-90
2021/07/02 06:32:41;;;;;;;6.63;5.00;;;18.50;99.90;;;;;;5028226;28;20463;-91
2021/07/02 06:35:10;;;;;;;6.30;5.13;;;18.20;99.90;;;;;;5033133;28;20451;-89
2021/07/02 06:37:37;;;;;;;4.93;4.20;;;;;;;;;;5032968;28;20478;-90
2021/07/02 06:40:06;;;;;;;6.33;5.37;;;17.30;99.90;;;;;;5087734;28;20440;-90
2021/07/02 06:42:33;;;;;;;6.60;5.97;;;;;;;;;;5094684;28;20449;-90
2021/07/02 06:45:01;;;;;;;6.40;5.37;;;;;;;;;;5092033;28;20608;-91
2021/07/02 06:47:27;;;;;;;12.70;5.17;;;18.30;99.90;;;;;;5092141;28;20459;-93
2021/07/02 06:49:54;;;;;;;5.27;4.77;;;18.50;99.90;;;;;;5090361;28;20441;-90
2021/07/02 06:52:23;;;;;;;6.20;5.63;;;18.90;99.90;;;;;;5095242;28;20464;-95
2021/07/02 06:54:50;;;;;;;6.43;5.83;;;;;;;;;;5109346;28;20837;-90
2021/07/02 06:57:17;;;;;;;6.10;5.00;;;19.60;99.90;;;;;;5114477;28;20448;-90
2021/07/02 06:59:44;;;;;;;6.30;5.60;;;19.50;99.90;;;;;;5112061;28;20448;-93
2021/07/02 07:02:14;;;;;;;5.40;4.70;;;19.70;99.90;;;;;;5112760;28;20432;-92
2021/07/02 07:04:42;;;;;;;5.77;5.27;;;19.10;99.90;;;;;;5115637;28;20799;-94
2021/07/02 07:07:10;;;;;;;5.60;5.10;;;19.20;99.90;;;;;;5109359;28;20444;-90
2021/07/02 07:09:38;;;;;;;5.87;5.20;;;19.20;99.90;;;;;;5114898;28;20468;-92
2021/07/02 07:12:06;;;;;;;5.60;5.10;;;19.40;99.90;;;;;;5109952;28;20433;-95
2021/07/02 07:14:34;;;;;;;5.30;4.80;;;;;;;;;;5108723;28;20591;-90
2021/07/02 07:17:01;;;;;;;5.23;4.73;;;19.50;99.90;;;;;;5115675;28;20471;-92
2021/07/02 07:19:29;;;;;;;9.70;5.43;;;;;;;;;;5112547;28;20966;-94
2021/07/02 07:21:56;;;;;;;10.80;4.77;;;18.80;99.90;;;;;;5116780;28;20806;-95
2021/07/02 07:24:26;;;;;;;7.33;5.27;;;;;;;;;;5121840;28;20789;-90
2021/07/02 07:26:55;;;;;;;5.77;5.27;;;;;;;;;;5129912;28;20448;-94
2021/07/02 07:29:23;;;;;;;7.50;5.47;;;;;;;;;;5127066;28;20471;-93
2021/07/02 07:31:50;;;;;;;5.47;4.97;;;18.60;99.90;;;;;;5132113;28;20444;-93
2021/07/02 07:34:25;;;;;;;5.73;4.67;;;;;;;;;;5123575;28;20511;-93
2021/07/02 07:36:55;;;;;;;7.00;5.30;;;;;;;;;;5094750;28;20489;-92
2021/07/02 07:39:24;;;;;;;5.10;4.20;;;;;;;;;;5099300;28;20433;-95
2021/07/02 07:41:51;;;;;;;5.23;4.73;;;;;;;;;;5096202;28;20441;-94
2021/07/02 07:44:19;;;;;;;5.10;4.50;;;18.40;99.90;;;;;;5100347;28;20460;-93
2021/07/02 07:46:46;;;;;;;9.00;5.20;;;;;;;;;;5116129;28;20507;-94
2021/07/02 07:49:15;;;;;;;5.00;4.50;;;;;;;;;;5102653;28;20444;-91
2021/07/02 07:51:46;;;;;;;6.30;5.20;;;;;;;;;;5091944;28;20452;-89
2021/07/02 07:54:14;;;;;;;6.30;4.40;;;;;;;;;;5094317;28;20488;-88
2021/07/02 07:56:50;;;;;;;7.80;4.60;;;;;;;;;;5099412;28;20456;-95
2021/07/02 07:59:19;;;;;;;5.17;4.17;;;20.70;99.90;;;;;;5102876;28;20509;-93
2021/07/02 08:01:46;;;;;;;5.90;5.30;;;21.10;99.90;;;;;;5090671;28;20452;-95
2021/07/02 08:04:14;;;;;;;5.50;5.00;;;;;;;;;;5098066;28;20430;-95
2021/07/02 08:06:41;;;;;;;6.37;4.47;;;;;;;;;;5102435;28;20452;-93
2021/07/02 08:09:09;;;;;;;5.03;4.53;;;;;;;;;;5111258;22;20484;-93
2021/07/02 08:11:36;;;;;;;6.23;5.10;;;;;;;;;;5099095;28;20471;-95
2021/07/02 08:14:04;;;;;;;5.13;4.63;;;;;;;;;;5105268;28;20471;-96
2021/07/02 08:16:33;;;;;;;5.03;4.63;;;20.00;99.90;;;;;;5105479;28;20444;-92
2021/07/02 08:19:00;;;;;;;5.63;5.03;;;;;;;;;;5131548;22;20487;-94
2021/07/02 08:21:27;;;;;;;5.03;4.57;;;;;;;;;;5117247;28;20958;-93
2021/07/02 08:23:54;;;;;;;4.63;4.23;;;;;;;;;;5112843;28;20451;-94
2021/07/02 08:26:21;;;;;;;5.07;4.67;;;;;;;;;;5118891;28;20435;-90
2021/07/02 08:31:34;;;;;;;4.73;4.30;;;19.00;99.90;;;;;;5116978;28;20443;-90
2021/07/02 08:34:02;;;;;;;5.17;4.23;;;;;;;;;;5118577;28;20479;-95
2021/07/02 08:36:30;;;;;;;5.33;4.83;;;;;;;;;;5118969;28;20462;-95
2021/07/02 08:38:56;;;;;;;7.93;4.40;;;19.80;99.90;;;;;;5118570;28;20478;-91
2021/07/02 08:41:23;;;;;;;5.50;4.83;;;20.70;99.90;;;;;;5119058;28;20440;-91
2021/07/02 08:43:51;;;;;;;7.70;4.90;;;20.90;99.90;;;;;;5113026;28;20447;-93
2021/07/02 08:46:21;;;;;;;4.80;4.33;;;21.40;99.90;;;;;;5115141;28;20443;-92
2021/07/02 08:48:50;;;;;;;4.30;3.80;;;20.70;99.90;;;;;;5109543;28;20943;-92
2021/07/02 08:51:18;;;;;;;4.77;4.37;;;;;;;;;;5114686;28;20447;-92
2021/07/02 08:53:45;;;;;;;5.33;4.83;;;19.50;99.90;;;;;;5113873;28;20498;-92
2021/07/02 08:56:14;;;;;;;6.43;4.63;;;;;;;;;;5116473;28;20428;-94
2021/07/02 08:58:41;;;;;;;4.70;4.30;;;;;;;;;;5132209;28;20448;-95
2021/07/02 09:01:39;;;;;;;5.40;4.90;;;22.30;98.90;;;;;;5132751;22;20500;-94
2021/07/02 09:04:22;;;;;;;4.53;4.13;;;21.50;97.00;;;;;;5139860;22;20596;-95
2021/07/02 09:07:08;;;;;;;4.70;4.30;;;20.70;98.00;;;;;;5125344;28;20458;-92
2021/07/02 09:09:54;;;;;;;8.27;4.60;;;20.40;99.90;;;;;;5129814;22;20479;-92
2021/07/02 09:12:23;;;;;;;5.20;4.70;;;21.10;99.60;;;;;;5120300;28;20472;-95
2021/07/02 09:15:06;;;;;;;4.70;4.20;;;21.00;98.00;;;;;;5123828;28;20497;-89
2021/07/02 09:17:33;;;;;;;6.30;4.20;;;;;;;;;;5133904;22;21339;-95
2021/07/02 09:20:14;;;;;;;4.80;4.40;;;20.30;99.90;;;;;;5117766;28;20462;-94
2021/07/02 09:22:44;;;;;;;5.50;3.83;;;20.20;99.90;;;;;;5115464;28;20855;-93
2021/07/02 09:25:19;;;;;;;3.97;3.67;;;21.10;99.90;;;;;;5119581;28;20789;-92
2021/07/02 09:27:46;;;;;;;4.70;4.30;;;;;;;;;;5118868;28;20434;-93
2021/07/02 09:30:16;;;;;;;6.93;4.37;;;21.80;99.90;;;;;;5119261;28;20826;-94
2021/07/02 09:32:44;;;;;;;4.93;4.50;;;21.10;97.00;;;;;;5118482;28;20451;-96
2021/07/02 09:35:15;;;;;;;4.80;4.40;;;;;;;;;;5119438;28;20497;-90
2021/07/02 09:37:43;;;;;;;4.80;4.40;;;;;;;;;;5126417;28;20814;-96
2021/07/02 09:40:13;;;;;;;5.20;4.80;;;20.10;99.90;;;;;;5123725;28;20444;-96
2021/07/02 09:42:40;;;;;;;5.23;4.20;;;;;;;;;;5120020;28;20455;-90
2021/07/02 09:45:10;;;;;;;6.97;5.00;;;20.10;99.90;;;;;;5123199;28;21035;-94
2021/07/02 09:47:46;;;;;;;9.33;5.07;;;21.20;99.30;;;;;;5125272;28;20881;-94
2021/07/02 09:50:25;;;;;;;4.70;4.20;;;22.30;96.10;;;;;;5140794;22;20451;-93
2021/07/02 09:52:58;;;;;;;4.70;4.20;;;22.90;94.50;;;;;;5128577;22;20475;-95
2021/07/02 09:55:36;;;;;;;4.50;4.10;;;22.90;94.70;;;;;;5122083;28;20441;-94
2021/07/02 09:58:28;;;;;;;4.67;4.27;;;22.20;94.70;;;;;;5133019;22;20439;-95
2021/07/02 10:01:01;;;;;;;3.80;3.50;;;;;;;;;;5154345;22;20484;-93
2021/07/02 10:03:53;;;;;;;5.17;4.53;;;23.00;99.90;;;;;;5111262;28;20476;-93
2021/07/02 10:06:24;;;;;;;4.13;3.73;;;23.20;91.50;;;;;;5104316;28;20491;-94
2021/07/02 10:08:52;;;;;;;3.73;3.43;;;;;;;;;;5089322;28;20499;-93
2021/07/02 10:11:24;;;;;;;6.20;3.70;;;;;;;;;;5108945;22;20842;-95
2021/07/02 10:13:52;;;;;;;3.87;3.57;;;;;;;;;;5104876;28;20493;-94
2021/07/02 10:16:19;;;;;;;4.30;3.90;;;23.70;92.30;;;;;;5106563;28;20437;-91
2021/07/02 10:18:47;;;;;;;4.90;4.27;;;23.10;92.40;;;;;;5100121;28;20440;-94
2021/07/02 10:21:16;;;;;;;5.03;3.63;;;23.30;92.10;;;;;;5102596;28;20459;-92
2021/07/02 10:23:47;;;;;;;4.13;3.70;;;23.80;89.70;;;;;;5110591;28;20433;-93
2021/07/02 10:26:15;;;;;;;4.10;3.70;;;;;;;;;;5111687;22;20489;-93
2021/07/02 10:28:43;;;;;;;4.63;4.23;;;23.00;90.60;;;;;;5078498;28;20520;-93
2021/07/02 10:31:16;;;;;;;6.17;4.30;;;22.80;90.80;;;;;;5092912;28;20460;-94
2021/07/02 10:33:48;;;;;;;4.90;4.50;;;23.40;91.30;;;;;;5118920;22;20507;-93
2021/07/02 10:36:16;;;;;;;4.70;4.30;;;23.00;95.10;;;;;;5108602;28;20559;-96
2021/07/02 10:38:57;;;;;;;4.20;3.80;;;22.20;93.20;;;;;;5124271;28;20446;-92
2021/07/02 10:41:31;;;;;;;4.70;4.30;;;22.80;92.90;;;;;;5136485;22;20568;-93
2021/07/02 10:46:33;;;;;;;4.87;3.70;;;;;;;;;;5131184;23;20484;-92
2021/07/02 10:49:05;;;;;;;5.13;4.07;;;22.60;91.90;;;;;;5121439;28;20205;-95
2021/07/02 10:52:00;;;;;;;4.80;4.30;;;22.50;99.90;;;;;;5114796;28;20452;-95
2021/07/02 10:54:31;;;;;;;4.97;4.30;;;23.40;93.60;;;;;;5117955;28;20448;-92
2021/07/02 10:57:12;;;;;;;5.57;5.00;;;23.80;99.90;;;;;;5116680;28;20481;-91
2021/07/02 11:00:15;;;;;;;5.07;4.57;;;24.80;91.10;;;;;;5115727;28;20938;-89
2021/07/02 11:02:43;;;;;;;5.37;4.87;;;;;;;;;;5117329;28;20444;-93
2021/07/02 11:05:30;;;;;;;4.57;4.17;;;24.30;86.30;;;;;;5119933;28;20544;-92
2021/07/02 11:07:59;;;;;;;3.60;3.30;;;;;;;;;;5122874;28;20975;-92
2021/07/02 11:10:27;;;;;;;3.70;3.40;;;;;;;;;;5113906;28;20440;-91
2021/07/02 11:13:05;;;;;;;4.40;4.00;;;24.00;90.30;;;;;;5115041;28;20613;-90
2021/07/02 11:15:33;;;;;;;4.40;4.00;;;;;;;;;;5118526;28;20496;-92
2021/07/02 11:18:19;;;;;;;4.53;3.60;;;24.40;91.00;;;;;;5119213;28;20435;-94
2021/07/02 11:20:47;;;;;;;7.60;4.60;;;24.30;95.80;;;;;;5111947;28;20432;-88
2021/07/02 11:23:22;;;;;;;3.90;3.50;;;24.60;99.10;;;;;;5114597;28;20447;-92
2021/07/02 11:28:53;;;;;;;4.47;4.07;;;24.30;99.90;;;;;;5097385;28;20565;-90
2021/07/02 11:31:20;;;;;;;4.20;3.80;;;;;;;;;;5095135;28;20449;-91
2021/07/02 11:33:48;;;;;;;4.53;4.13;;;23.80;90.00;;;;;;5095783;28;20441;-93
2021/07/02 11:36:22;;;;;;;4.93;4.30;;;23.80;91.50;;;;;;5096606;28;20448;-91
2021/07/02 11:38:56;;;;;;;4.97;3.93;;;24.50;90.40;;;;;;5097993;28;20556;-92
2021/07/02 11:41:38;;;;;;;4.50;4.10;;;24.70;91.10;;;;;;5101620;28;20448;-93
2021/07/02 11:44:09;;;;;;;4.57;4.17;;;25.20;90.50;;;;;;5097342;28;20960;-88
2021/07/02 11:46:36;;;;;;;5.73;5.23;;;;;;;;;;5093956;28;20455;-92
2021/07/02 11:49:03;;;;;;;6.10;5.23;;;;;;;;;;5097767;28;20413;-90
2021/07/02 11:51:33;;;;;;;6.30;5.20;;;23.10;92.50;;;;;;5094886;28;20440;-92
2021/07/02 11:54:01;;;;;;;5.67;4.70;;;23.60;93.10;;;;;;5096049;28;20531;-89
2021/07/02 11:56:30;;;;;;;4.80;4.30;;;24.20;92.40;;;;;;5061386;28;20467;-91
2021/07/02 11:59:03;;;;;;;5.70;4.50;;;24.20;90.60;;;;;;5094693;28;20441;-91
2021/07/02 12:01:37;;;;;;;5.77;4.53;;;23.50;90.80;;;;;;5095042;28;20510;-90
2021/07/02 12:04:09;;;;;;;4.77;4.30;;;23.40;90.50;;;;;;5095083;28;20445;-94
2021/07/02 12:06:39;;;;;;;5.40;4.90;;;23.90;91.30;;;;;;5094880;28;20456;-90
2021/07/02 12:09:17;;;;;;;5.37;4.87;;;24.20;97.30;;;;;;5083242;28;20458;-93
2021/07/02 12:11:46;;;;;;;5.50;5.00;;;;;;;;;;5072889;28;20477;-93
2021/07/02 12:14:15;;;;;;;5.17;4.50;;;23.30;92.10;;;;;;5076613;28;20477;-94
2021/07/02 12:16:45;;;;;;;5.20;4.70;;;23.50;94.10;;;;;;5074594;28;20454;-93
2021/07/02 12:19:16;;;;;;;4.93;4.53;;;23.30;94.20;;;;;;5073268;28;20453;-94
2021/07/02 12:21:57;;;;;;;5.47;4.97;;;23.60;93.80;;;;;;5073582;28;20524;-94
2021/07/02 12:24:26;;;;;;;5.40;4.90;;;23.30;94.30;;;;;;5074762;28;20461;-92
2021/07/02 12:26:55;;;;;;;5.20;4.70;;;23.60;94.60;;;;;;5072302;28;20470;-92
2021/07/02 12:29:22;;;;;;;5.40;4.90;;;;;;;;;;5071613;28;20453;-92
2021/07/02 12:31:56;;;;;;;5.67;5.10;;;24.00;94.20;;;;;;5077962;28;20462;-93
2021/07/02 12:34:24;;;;;;;5.40;4.90;;;23.60;92.90;;;;;;5074265;28;20503;-93
2021/07/02 12:36:58;;;;;;;7.00;5.20;;;;;;;;;;5077557;28;20438;-91
2021/07/02 12:39:29;;;;;;;5.63;4.57;;;24.00;93.70;;;;;;5068489;28;20442;-92
2021/07/02 12:44:45;;;;;;;5.13;4.30;;;24.60;91.80;;;;;;5056330;28;20462;-94
2021/07/02 12:47:14;;;;;;;6.57;4.80;;;24.70;89.30;;;;;;5059041;28;20483;-92
2021/07/02 12:49:45;;;;;;;4.30;3.90;;;25.30;99.90;;;;;;5058877;28;20451;-91
2021/07/02 12:55:07;;;;;;;5.10;4.40;;;23.90;88.20;;;;;;5059735;28;20442;-92
2021/07/02 12:57:36;;;;;;;4.60;4.20;;;23.80;89.80;;;;;;5059697;28;20451;-95
2021/07/02 13:00:06;;;;;;;4.80;4.40;;;23.50;90.90;;;;;;5057579;28;20451;-95
2021/07/02 13:02:51;;;;;;;5.00;4.50;;;23.70;91.50;;;;;;5057688;28;20431;-93
2021/07/02 13:05:28;;;;;;;7.23;4.33;;;23.80;90.90;;;;;;5057475;28;20488;-93
2021/07/02 13:07:57;;;;;;;5.43;4.07;;;22.90;88.90;;;;;;5054171;28;20494;-93
2021/07/02 13:10:30;;;;;;;5.33;4.83;;;23.50;93.00;;;;;;5057514;28;20455;-94
2021/07/02 13:13:15;;;;;;;4.80;4.40;;;23.80;91.20;;;;;;5053332;28;20434;-92
2021/07/02 13:16:02;;;;;;;4.67;4.27;;;23.80;88.20;;;;;;5059118;28;20434;-94
2021/07/02 13:18:32;;;;;;;3.87;3.47;;;24.10;91.10;;;;;;5056326;28;20455;-91
2021/07/02 13:21:01;;;;;;;5.23;4.67;;;24.10;90.20;;;;;;5059454;28;20475;-94
2021/07/02 13:23:30;;;;;;;4.40;4.00;;;24.00;89.30;;;;;;5055668;28;20504;-95
2021/07/02 13:26:13;;;;;;;5.57;5.07;;;23.70;99.90;;;;;;5057148;28;20530;-91
2021/07/02 13:28:42;;;;;;;6.30;4.90;;;23.80;91.00;;;;;;5053531;28;20589;-92
2021/07/02 13:31:23;;;;;;;5.13;4.63;;;23.30;91.90;;;;;;5054042;28;20803;-92
2021/07/02 13:34:16;;;;;;;5.70;5.20;;;22.90;99.90;;;;;;5054965;28;20453;-94
2021/07/02 13:36:47;;;;;;;5.20;4.70;;;23.30;92.50;;;;;;5052814;28;20443;-92
2021/07/02 13:39:16;;;;;;;6.73;4.30;;;23.30;91.60;;;;;;5052663;28;20439;-93
2021/07/02 13:41:44;;;;;;;10.30;4.50;;;23.30;89.30;;;;;;5051797;28;20457;-93
2021/07/02 13:44:14;;;;;;;4.60;4.20;;;23.30;90.70;;;;;;5058381;28;20834;-93
2021/07/02 13:46:41;;;;;;;5.60;4.63;;;;;;;;;;5054132;28;20439;-93
2021/07/02 13:49:09;;;;;;;5.27;4.77;;;;;;;;;;5055849;28;21005;-92
2021/07/02 13:51:38;;;;;;;3.93;3.60;;;;;;;;;;5055549;28;20465;-94
2021/07/02 13:54:07;;;;;;;4.43;4.00;;;24.70;85.00;;;;;;5058416;28;20537;-93
2021/07/02 13:56:34;;;;;;;5.57;4.47;;;;;;;;;;5058042;28;20467;-91
2021/07/02 13:59:01;;;;;;;5.30;4.80;;;;;;;;;;5057194;28;20470;-93
2021/07/02 14:01:28;;;;;;;5.00;4.60;;;;;;;;;;5068877;28;20957;-91
2021/07/02 14:03:56;;;;;;;6.47;5.17;;;;;;;;;;5055907;28;20442;-92